sensor_id;sensor_type;location;lat;lon;timestamp;P1;durP1;ratioP1;P2;durP2;ratioP2
4634;SDS011;2330;48.158;11.816;2022-09-01T00:00:50;22.03;;;19.83;;
4634;SDS011;2330;48.158;11.816;2022-09-01T00:03:18;21.47;;;19.47;;
4634;SDS011;2330;48.158;11.816;2022-09-01T00:05:51;21.37;;;19.37;;
4634;SDS011;2330;48.158;11.816;2022-09-01T00:08:20;21.10;;;19.23;;
4634;SDS011;2330;48.158;11.816;2022-09-01T00:10:48;22.03;;;20.10;;
4634;SDS011;2330;48.158;11.816;2022-09-01T00:13:16;24.43;;;21.90;;
4634;SDS011;2330;48.158;11.816;2022-09-01T00:15:43;17.80;;;16.20;;
4634;SDS011;2330;48.158;11.816;2022-09-01T00:18:10;21.60;;;19.60;;
4634;SDS011;2330;48.158;11.816;2022-09-01T00:20:37;22.10;;;20.10;;
4634;SDS011;2330;48.158;11.816;2022-09-01T00:23:04;20.97;;;18.80;;
4634;SDS011;2330;48.158;11.816;2022-09-01T00:25:31;19.57;;;17.77;;
4634;SDS011;2330;48.158;11.816;2022-09-01T00:27:58;20.37;;;18.57;;
4634;SDS011;2330;48.158;11.816;2022-09-01T00:30:29;23.03;;;20.90;;
4634;SDS011;2330;48.158;11.816;2022-09-01T00:32:56;22.47;;;20.33;;
4634;SDS011;2330;48.158;11.816;2022-09-01T00:35:23;23.90;;;21.80;;
4634;SDS011;2330;48.158;11.816;2022-09-01T00:37:50;22.00;;;19.93;;
4634;SDS011;2330;48.158;11.816;2022-09-01T00:40:17;25.20;;;22.90;;
4634;SDS011;2330;48.158;11.816;2022-09-01T00:42:44;25.07;;;22.60;;
4634;SDS011;2330;48.158;11.816;2022-09-01T00:45:13;19.30;;;17.50;;
4634;SDS011;2330;48.158;11.816;2022-09-01T00:47:41;23.53;;;21.33;;
4634;SDS011;2330;48.158;11.816;2022-09-01T00:50:08;16.60;;;15.10;;
4634;SDS011;2330;48.158;11.816;2022-09-01T00:52:38;24.57;;;22.13;;
4634;SDS011;2330;48.158;11.816;2022-09-01T00:55:24;20.90;;;19.10;;
4634;SDS011;2330;48.158;11.816;2022-09-01T00:57:55;25.03;;;22.73;;
4634;SDS011;2330;48.158;11.816;2022-09-01T01:00:25;21.00;;;19.10;;
4634;SDS011;2330;48.158;11.816;2022-09-01T01:02:56;23.27;;;20.90;;
4634;SDS011;2330;48.158;11.816;2022-09-01T01:05:33;19.43;;;17.57;;
4634;SDS011;2330;48.158;11.816;2022-09-01T01:08:06;19.93;;;18.03;;
4634;SDS011;2330;48.158;11.816;2022-09-01T01:10:36;22.37;;;20.13;;
4634;SDS011;2330;48.158;11.816;2022-09-01T01:13:11;19.97;;;18.17;;
4634;SDS011;2330;48.158;11.816;2022-09-01T01:15:40;19.93;;;18.03;;
4634;SDS011;2330;48.158;11.816;2022-09-01T01:18:13;22.13;;;19.97;;
4634;SDS011;2330;48.158;11.816;2022-09-01T01:20:53;22.10;;;19.73;;
4634;SDS011;2330;48.158;11.816;2022-09-01T01:26:57;23.27;;;21.17;;
4634;SDS011;2330;48.158;11.816;2022-09-01T01:29:33;20.57;;;18.70;;
4634;SDS011;2330;48.158;11.816;2022-09-01T01:32:05;21.13;;;19.00;;
4634;SDS011;2330;48.158;11.816;2022-09-01T01:34:38;23.33;;;21.17;;
4634;SDS011;2330;48.158;11.816;2022-09-01T01:37:08;24.03;;;21.63;;
4634;SDS011;2330;48.158;11.816;2022-09-01T01:39:36;18.57;;;16.77;;
4634;SDS011;2330;48.158;11.816;2022-09-01T01:42:08;22.20;;;20.20;;
4634;SDS011;2330;48.158;11.816;2022-09-01T01:44:35;19.27;;;17.33;;
4634;SDS011;2330;48.158;11.816;2022-09-01T01:47:04;22.23;;;20.00;;
4634;SDS011;2330;48.158;11.816;2022-09-01T01:49:38;23.27;;;21.17;;
4634;SDS011;2330;48.158;11.816;2022-09-01T01:52:10;24.23;;;21.93;;
4634;SDS011;2330;48.158;11.816;2022-09-01T01:54:42;21.07;;;18.97;;
4634;SDS011;2330;48.158;11.816;2022-09-01T01:57:11;14.63;;;13.13;;
4634;SDS011;2330;48.158;11.816;2022-09-01T01:59:43;22.87;;;20.43;;
4634;SDS011;2330;48.158;11.816;2022-09-01T02:02:10;24.03;;;21.80;;
4634;SDS011;2330;48.158;11.816;2022-09-01T02:04:38;23.40;;;20.93;;
4634;SDS011;2330;48.158;11.816;2022-09-01T02:07:08;17.67;;;15.97;;
4634;SDS011;2330;48.158;11.816;2022-09-01T02:09:37;21.20;;;18.80;;
4634;SDS011;2330;48.158;11.816;2022-09-01T02:12:06;20.30;;;18.40;;
4634;SDS011;2330;48.158;11.816;2022-09-01T02:14:33;24.07;;;21.50;;
4634;SDS011;2330;48.158;11.816;2022-09-01T02:17:00;21.90;;;19.90;;
4634;SDS011;2330;48.158;11.816;2022-09-01T02:19:28;22.37;;;20.27;;
4634;SDS011;2330;48.158;11.816;2022-09-01T02:21:55;21.33;;;19.33;;
4634;SDS011;2330;48.158;11.816;2022-09-01T02:24:25;20.53;;;18.43;;
4634;SDS011;2330;48.158;11.816;2022-09-01T02:26:56;18.53;;;16.73;;
4634;SDS011;2330;48.158;11.816;2022-09-01T02:29:25;21.77;;;19.77;;
4634;SDS011;2330;48.158;11.816;2022-09-01T02:31:54;21.07;;;19.00;;
4634;SDS011;2330;48.158;11.816;2022-09-01T02:34:22;20.70;;;18.70;;
4634;SDS011;2330;48.158;11.816;2022-09-01T02:36:51;22.80;;;20.70;;
4634;SDS011;2330;48.158;11.816;2022-09-01T02:39:27;18.63;;;16.93;;
4634;SDS011;2330;48.158;11.816;2022-09-01T02:41:59;22.80;;;20.20;;
4634;SDS011;2330;48.158;11.816;2022-09-01T02:44:27;23.40;;;21.13;;
4634;SDS011;2330;48.158;11.816;2022-09-01T02:46:56;24.20;;;21.80;;
4634;SDS011;2330;48.158;11.816;2022-09-01T02:49:24;23.13;;;20.70;;
4634;SDS011;2330;48.158;11.816;2022-09-01T02:51:55;18.83;;;17.13;;
4634;SDS011;2330;48.158;11.816;2022-09-01T02:54:27;25.17;;;22.80;;
4634;SDS011;2330;48.158;11.816;2022-09-01T02:56:56;20.73;;;18.73;;
4634;SDS011;2330;48.158;11.816;2022-09-01T02:59:24;20.70;;;18.60;;
4634;SDS011;2330;48.158;11.816;2022-09-01T03:01:54;18.30;;;16.53;;
4634;SDS011;2330;48.158;11.816;2022-09-01T03:04:22;20.37;;;18.47;;
4634;SDS011;2330;48.158;11.816;2022-09-01T03:06:49;20.53;;;18.63;;
4634;SDS011;2330;48.158;11.816;2022-09-01T03:09:20;22.80;;;20.80;;
4634;SDS011;2330;48.158;11.816;2022-09-01T03:11:48;21.93;;;19.93;;
4634;SDS011;2330;48.158;11.816;2022-09-01T03:14:16;22.57;;;20.37;;
4634;SDS011;2330;48.158;11.816;2022-09-01T03:16:43;23.50;;;21.23;;
4634;SDS011;2330;48.158;11.816;2022-09-01T03:19:10;25.90;;;23.50;;
4634;SDS011;2330;48.158;11.816;2022-09-01T03:21:41;20.43;;;18.63;;
4634;SDS011;2330;48.158;11.816;2022-09-01T03:24:10;24.37;;;22.17;;
4634;SDS011;2330;48.158;11.816;2022-09-01T03:26:40;24.70;;;22.40;;
4634;SDS011;2330;48.158;11.816;2022-09-01T03:29:08;20.70;;;18.80;;
4634;SDS011;2330;48.158;11.816;2022-09-01T03:31:35;23.73;;;21.60;;
4634;SDS011;2330;48.158;11.816;2022-09-01T03:34:03;24.47;;;22.07;;
4634;SDS011;2330;48.158;11.816;2022-09-01T03:36:31;23.97;;;21.47;;
4634;SDS011;2330;48.158;11.816;2022-09-01T03:38:58;26.20;;;23.73;;
4634;SDS011;2330;48.158;11.816;2022-09-01T03:41:27;23.63;;;21.50;;
4634;SDS011;2330;48.158;11.816;2022-09-01T03:43:56;25.20;;;20.90;;
4634;SDS011;2330;48.158;11.816;2022-09-01T03:46:25;23.87;;;21.40;;
4634;SDS011;2330;48.158;11.816;2022-09-01T03:49:01;21.57;;;19.53;;
4634;SDS011;2330;48.158;11.816;2022-09-01T03:51:31;23.13;;;20.97;;
4634;SDS011;2330;48.158;11.816;2022-09-01T03:53:58;22.20;;;19.93;;
4634;SDS011;2330;48.158;11.816;2022-09-01T03:56:26;19.03;;;17.33;;
4634;SDS011;2330;48.158;11.816;2022-09-01T03:58:54;24.00;;;21.80;;
4634;SDS011;2330;48.158;11.816;2022-09-01T04:01:23;23.23;;;21.03;;
4634;SDS011;2330;48.158;11.816;2022-09-01T04:03:54;22.50;;;20.30;;
4634;SDS011;2330;48.158;11.816;2022-09-01T04:06:21;19.73;;;17.93;;
4634;SDS011;2330;48.158;11.816;2022-09-01T04:08:50;21.03;;;19.17;;
4634;SDS011;2330;48.158;11.816;2022-09-01T04:11:21;21.87;;;19.93;;
4634;SDS011;2330;48.158;11.816;2022-09-01T04:13:49;23.17;;;21.17;;
4634;SDS011;2330;48.158;11.816;2022-09-01T04:16:17;21.33;;;19.17;;
4634;SDS011;2330;48.158;11.816;2022-09-01T04:19:05;24.97;;;22.67;;
4634;SDS011;2330;48.158;11.816;2022-09-01T04:21:42;23.70;;;21.40;;
4634;SDS011;2330;48.158;11.816;2022-09-01T04:24:09;23.13;;;21.03;;
4634;SDS011;2330;48.158;11.816;2022-09-01T04:26:39;24.13;;;21.60;;
4634;SDS011;2330;48.158;11.816;2022-09-01T04:29:06;21.60;;;19.63;;
4634;SDS011;2330;48.158;11.816;2022-09-01T04:31:36;21.80;;;19.77;;
4634;SDS011;2330;48.158;11.816;2022-09-01T04:34:03;21.43;;;19.47;;
4634;SDS011;2330;48.158;11.816;2022-09-01T04:36:39;24.27;;;22.03;;
4634;SDS011;2330;48.158;11.816;2022-09-01T04:39:09;25.10;;;22.70;;
4634;SDS011;2330;48.158;11.816;2022-09-01T04:41:41;20.37;;;18.43;;
4634;SDS011;2330;48.158;11.816;2022-09-01T04:44:11;18.80;;;17.07;;
4634;SDS011;2330;48.158;11.816;2022-09-01T04:46:41;19.03;;;17.33;;
4634;SDS011;2330;48.158;11.816;2022-09-01T04:49:11;18.80;;;17.07;;
4634;SDS011;2330;48.158;11.816;2022-09-01T04:51:42;22.80;;;20.70;;
4634;SDS011;2330;48.158;11.816;2022-09-01T04:54:18;24.40;;;21.97;;
4634;SDS011;2330;48.158;11.816;2022-09-01T04:56:47;23.00;;;20.90;;
4634;SDS011;2330;48.158;11.816;2022-09-01T04:59:16;18.90;;;16.90;;
4634;SDS011;2330;48.158;11.816;2022-09-01T05:01:46;18.07;;;16.30;;
4634;SDS011;2330;48.158;11.816;2022-09-01T05:04:17;21.03;;;18.97;;
4634;SDS011;2330;48.158;11.816;2022-09-01T05:06:47;19.60;;;17.80;;
4634;SDS011;2330;48.158;11.816;2022-09-01T05:09:16;20.40;;;18.50;;
4634;SDS011;2330;48.158;11.816;2022-09-01T05:11:44;20.40;;;18.50;;
4634;SDS011;2330;48.158;11.816;2022-09-01T05:14:11;16.97;;;15.37;;
4634;SDS011;2330;48.158;11.816;2022-09-01T05:16:39;17.80;;;16.17;;
4634;SDS011;2330;48.158;11.816;2022-09-01T05:19:10;18.67;;;17.07;;
4634;SDS011;2330;48.158;11.816;2022-09-01T05:21:43;19.63;;;17.73;;
4634;SDS011;2330;48.158;11.816;2022-09-01T05:24:12;17.93;;;16.23;;
4634;SDS011;2330;48.158;11.816;2022-09-01T05:26:42;15.30;;;14.00;;
4634;SDS011;2330;48.158;11.816;2022-09-01T05:29:12;16.87;;;15.17;;
4634;SDS011;2330;48.158;11.816;2022-09-01T05:31:41;18.63;;;16.93;;
4634;SDS011;2330;48.158;11.816;2022-09-01T05:34:10;20.07;;;18.23;;
4634;SDS011;2330;48.158;11.816;2022-09-01T05:36:43;15.80;;;14.33;;
4634;SDS011;2330;48.158;11.816;2022-09-01T05:39:11;16.07;;;14.47;;
4634;SDS011;2330;48.158;11.816;2022-09-01T05:41:39;15.43;;;14.03;;
4634;SDS011;2330;48.158;11.816;2022-09-01T05:44:06;15.87;;;14.30;;
4634;SDS011;2330;48.158;11.816;2022-09-01T05:46:34;15.17;;;13.87;;
4634;SDS011;2330;48.158;11.816;2022-09-01T05:49:04;12.80;;;11.50;;
4634;SDS011;2330;48.158;11.816;2022-09-01T05:51:34;11.60;;;10.57;;
4634;SDS011;2330;48.158;11.816;2022-09-01T05:54:16;12.60;;;11.53;;
4634;SDS011;2330;48.158;11.816;2022-09-01T05:56:51;9.73;;;8.93;;
4634;SDS011;2330;48.158;11.816;2022-09-01T05:59:18;11.80;;;10.80;;
4634;SDS011;2330;48.158;11.816;2022-09-01T06:01:51;9.70;;;8.90;;
4634;SDS011;2330;48.158;11.816;2022-09-01T06:04:19;12.37;;;11.27;;
4634;SDS011;2330;48.158;11.816;2022-09-01T06:06:46;13.17;;;11.97;;
4634;SDS011;2330;48.158;11.816;2022-09-01T06:09:31;13.53;;;12.33;;
4634;SDS011;2330;48.158;11.816;2022-09-01T06:11:58;16.47;;;14.97;;
4634;SDS011;2330;48.158;11.816;2022-09-01T06:14:24;15.57;;;14.17;;
4634;SDS011;2330;48.158;11.816;2022-09-01T06:16:51;16.90;;;15.20;;
4634;SDS011;2330;48.158;11.816;2022-09-01T06:19:19;16.33;;;14.87;;
4634;SDS011;2330;48.158;11.816;2022-09-01T06:21:46;16.80;;;15.20;;
4634;SDS011;2330;48.158;11.816;2022-09-01T06:24:13;15.57;;;14.17;;
4634;SDS011;2330;48.158;11.816;2022-09-01T06:26:40;16.07;;;14.60;;
4634;SDS011;2330;48.158;11.816;2022-09-01T06:29:08;16.33;;;14.40;;
4634;SDS011;2330;48.158;11.816;2022-09-01T06:31:40;17.67;;;16.00;;
4634;SDS011;2330;48.158;11.816;2022-09-01T06:34:09;16.13;;;14.73;;
4634;SDS011;2330;48.158;11.816;2022-09-01T06:36:43;17.70;;;16.20;;
4634;SDS011;2330;48.158;11.816;2022-09-01T06:39:13;19.50;;;17.77;;
4634;SDS011;2330;48.158;11.816;2022-09-01T06:41:45;14.60;;;13.40;;
4634;SDS011;2330;48.158;11.816;2022-09-01T06:44:15;18.30;;;16.63;;
4634;SDS011;2330;48.158;11.816;2022-09-01T06:46:48;17.43;;;15.80;;
4634;SDS011;2330;48.158;11.816;2022-09-01T06:49:17;19.70;;;18.00;;
4634;SDS011;2330;48.158;11.816;2022-09-01T06:51:48;16.53;;;14.93;;
4634;SDS011;2330;48.158;11.816;2022-09-01T06:54:17;22.00;;;16.57;;
4634;SDS011;2330;48.158;11.816;2022-09-01T06:56:46;16.70;;;15.00;;
4634;SDS011;2330;48.158;11.816;2022-09-01T06:59:18;17.10;;;15.50;;
4634;SDS011;2330;48.158;11.816;2022-09-01T07:01:46;16.20;;;14.73;;
4634;SDS011;2330;48.158;11.816;2022-09-01T07:04:15;16.60;;;15.00;;
4634;SDS011;2330;48.158;11.816;2022-09-01T07:06:45;16.40;;;14.80;;
4634;SDS011;2330;48.158;11.816;2022-09-01T07:09:26;16.63;;;14.93;;
4634;SDS011;2330;48.158;11.816;2022-09-01T07:12:14;16.80;;;15.30;;
4634;SDS011;2330;48.158;11.816;2022-09-01T07:14:53;16.43;;;14.97;;
4634;SDS011;2330;48.158;11.816;2022-09-01T07:17:40;17.83;;;16.03;;
4634;SDS011;2330;48.158;11.816;2022-09-01T07:20:08;15.50;;;14.10;;
4634;SDS011;2330;48.158;11.816;2022-09-01T07:22:53;17.10;;;15.40;;
4634;SDS011;2330;48.158;11.816;2022-09-01T07:25:30;16.33;;;14.50;;
4634;SDS011;2330;48.158;11.816;2022-09-01T07:28:24;17.30;;;14.33;;
4634;SDS011;2330;48.158;11.816;2022-09-01T07:31:03;15.27;;;13.80;;
4634;SDS011;2330;48.158;11.816;2022-09-01T07:33:51;15.50;;;13.20;;
4634;SDS011;2330;48.158;11.816;2022-09-01T07:36:40;14.33;;;13.03;;
4634;SDS011;2330;48.158;11.816;2022-09-01T07:39:28;99.03;;;21.53;;
4634;SDS011;2330;48.158;11.816;2022-09-01T07:42:17;23.83;;;15.00;;
4634;SDS011;2330;48.158;11.816;2022-09-01T07:45:06;18.13;;;15.10;;
4634;SDS011;2330;48.158;11.816;2022-09-01T07:47:54;15.00;;;13.43;;
4634;SDS011;2330;48.158;11.816;2022-09-01T07:50:22;18.77;;;14.40;;
4634;SDS011;2330;48.158;11.816;2022-09-01T07:53:09;15.93;;;14.00;;
4634;SDS011;2330;48.158;11.816;2022-09-01T07:55:40;16.67;;;13.60;;
4634;SDS011;2330;48.158;11.816;2022-09-01T07:58:09;20.83;;;13.20;;
4634;SDS011;2330;48.158;11.816;2022-09-01T08:00:38;15.70;;;13.60;;
4634;SDS011;2330;48.158;11.816;2022-09-01T08:03:05;15.57;;;13.33;;
4634;SDS011;2330;48.158;11.816;2022-09-01T08:05:32;15.40;;;13.73;;
4634;SDS011;2330;48.158;11.816;2022-09-01T08:07:59;12.50;;;11.20;;
4634;SDS011;2330;48.158;11.816;2022-09-01T08:10:26;14.57;;;13.03;;
4634;SDS011;2330;48.158;11.816;2022-09-01T08:12:53;13.60;;;12.27;;
4634;SDS011;2330;48.158;11.816;2022-09-01T08:15:22;16.60;;;15.03;;
4634;SDS011;2330;48.158;11.816;2022-09-01T08:18:10;13.77;;;12.47;;
4634;SDS011;2330;48.158;11.816;2022-09-01T08:20:40;12.87;;;11.57;;
4634;SDS011;2330;48.158;11.816;2022-09-01T08:23:11;13.00;;;11.73;;
4634;SDS011;2330;48.158;11.816;2022-09-01T08:25:40;11.60;;;10.60;;
4634;SDS011;2330;48.158;11.816;2022-09-01T08:28:09;11.93;;;10.93;;
4634;SDS011;2330;48.158;11.816;2022-09-01T08:30:37;12.23;;;10.93;;
4634;SDS011;2330;48.158;11.816;2022-09-01T08:33:06;11.50;;;10.30;;
4634;SDS011;2330;48.158;11.816;2022-09-01T08:35:37;16.57;;;11.57;;
4634;SDS011;2330;48.158;11.816;2022-09-01T08:38:05;12.73;;;9.90;;
4634;SDS011;2330;48.158;11.816;2022-09-01T08:40:32;12.67;;;11.50;;
4634;SDS011;2330;48.158;11.816;2022-09-01T08:48:18;13.63;;;12.33;;
4634;SDS011;2330;48.158;11.816;2022-09-01T08:51:13;13.93;;;12.73;;
4634;SDS011;2330;48.158;11.816;2022-09-01T08:53:58;13.90;;;12.50;;
4634;SDS011;2330;48.158;11.816;2022-09-01T08:56:30;13.40;;;12.20;;
4634;SDS011;2330;48.158;11.816;2022-09-01T08:59:03;13.00;;;11.90;;
4634;SDS011;2330;48.158;11.816;2022-09-01T09:01:44;14.47;;;13.20;;
4634;SDS011;2330;48.158;11.816;2022-09-01T09:04:18;15.37;;;13.67;;
4634;SDS011;2330;48.158;11.816;2022-09-01T09:07:23;15.60;;;13.00;;
4634;SDS011;2330;48.158;11.816;2022-09-01T09:09:55;10.90;;;9.90;;
4634;SDS011;2330;48.158;11.816;2022-09-01T09:12:35;15.53;;;12.43;;
4634;SDS011;2330;48.158;11.816;2022-09-01T09:18:11;12.77;;;11.67;;
4634;SDS011;2330;48.158;11.816;2022-09-01T09:21:13;11.00;;;10.00;;
4634;SDS011;2330;48.158;11.816;2022-09-01T09:23:42;10.40;;;9.40;;
4634;SDS011;2330;48.158;11.816;2022-09-01T09:26:11;11.67;;;9.40;;
4634;SDS011;2330;48.158;11.816;2022-09-01T09:28:47;9.20;;;8.30;;
4634;SDS011;2330;48.158;11.816;2022-09-01T09:33:53;10.23;;;8.53;;
4634;SDS011;2330;48.158;11.816;2022-09-01T09:36:22;16.80;;;8.00;;
4634;SDS011;2330;48.158;11.816;2022-09-01T09:39:03;7.57;;;6.83;;
4634;SDS011;2330;48.158;11.816;2022-09-01T09:41:33;8.13;;;7.43;;
4634;SDS011;2330;48.158;11.816;2022-09-01T09:44:20;13.63;;;7.40;;
4634;SDS011;2330;48.158;11.816;2022-09-01T09:46:51;7.23;;;6.60;;
4634;SDS011;2330;48.158;11.816;2022-09-01T09:49:25;12.30;;;8.30;;
4634;SDS011;2330;48.158;11.816;2022-09-01T09:54:36;10.70;;;8.10;;
4634;SDS011;2330;48.158;11.816;2022-09-01T09:59:43;6.73;;;6.13;;
4634;SDS011;2330;48.158;11.816;2022-09-01T10:05:40;6.30;;;5.67;;
4634;SDS011;2330;48.158;11.816;2022-09-01T10:08:54;5.03;;;4.53;;
4634;SDS011;2330;48.158;11.816;2022-09-01T10:11:03;4.70;;;4.30;;
4634;SDS011;2330;48.158;11.816;2022-09-01T10:13:33;4.60;;;4.00;;
4634;SDS011;2330;48.158;11.816;2022-09-01T10:16:03;5.80;;;4.30;;
4634;SDS011;2330;48.158;11.816;2022-09-01T10:18:37;5.10;;;4.70;;
4634;SDS011;2330;48.158;11.816;2022-09-01T10:21:14;4.90;;;4.40;;
4634;SDS011;2330;48.158;11.816;2022-09-01T10:23:46;4.60;;;4.07;;
4634;SDS011;2330;48.158;11.816;2022-09-01T10:26:18;3.60;;;3.40;;
4634;SDS011;2330;48.158;11.816;2022-09-01T10:29:00;3.77;;;3.47;;
4634;SDS011;2330;48.158;11.816;2022-09-01T10:31:44;6.73;;;3.43;;
4634;SDS011;2330;48.158;11.816;2022-09-01T10:34:12;5.60;;;3.10;;
4634;SDS011;2330;48.158;11.816;2022-09-01T10:36:45;5.33;;;3.40;;
4634;SDS011;2330;48.158;11.816;2022-09-01T10:39:21;7.80;;;2.70;;
4634;SDS011;2330;48.158;11.816;2022-09-01T10:41:56;4.50;;;2.67;;
4634;SDS011;2330;48.158;11.816;2022-09-01T10:44:33;3.17;;;2.73;;
4634;SDS011;2330;48.158;11.816;2022-09-01T10:47:08;3.30;;;2.70;;
4634;SDS011;2330;48.158;11.816;2022-09-01T10:52:38;2.30;;;2.10;;
4634;SDS011;2330;48.158;11.816;2022-09-01T10:55:18;4.87;;;2.60;;
4634;SDS011;2330;48.158;11.816;2022-09-01T11:01:02;15.47;;;4.20;;
4634;SDS011;2330;48.158;11.816;2022-09-01T11:07:12;9.13;;;4.07;;
4634;SDS011;2330;48.158;11.816;2022-09-01T11:09:41;20.03;;;4.57;;
4634;SDS011;2330;48.158;11.816;2022-09-01T11:12:19;4.97;;;2.97;;
4634;SDS011;2330;48.158;11.816;2022-09-01T11:15:06;10.90;;;3.33;;
4634;SDS011;2330;48.158;11.816;2022-09-01T11:18:01;6.43;;;3.20;;
4634;SDS011;2330;48.158;11.816;2022-09-01T11:20:40;3.83;;;2.40;;
4634;SDS011;2330;48.158;11.816;2022-09-01T11:23:22;3.10;;;2.60;;
4634;SDS011;2330;48.158;11.816;2022-09-01T11:25:59;3.37;;;2.60;;
4634;SDS011;2330;48.158;11.816;2022-09-01T11:28:46;4.23;;;2.70;;
4634;SDS011;2330;48.158;11.816;2022-09-01T11:31:15;2.80;;;2.00;;
4634;SDS011;2330;48.158;11.816;2022-09-01T11:36:52;3.40;;;2.60;;
4634;SDS011;2330;48.158;11.816;2022-09-01T11:39:35;2.77;;;2.47;;
4634;SDS011;2330;48.158;11.816;2022-09-01T11:42:08;3.23;;;2.90;;
4634;SDS011;2330;48.158;11.816;2022-09-01T11:44:44;4.40;;;2.37;;
4634;SDS011;2330;48.158;11.816;2022-09-01T11:47:30;2.67;;;2.03;;
4634;SDS011;2330;48.158;11.816;2022-09-01T11:49:59;22.47;;;3.33;;
4634;SDS011;2330;48.158;11.816;2022-09-01T11:52:29;8.30;;;2.90;;
4634;SDS011;2330;48.158;11.816;2022-09-01T11:55:00;9.77;;;3.20;;
4634;SDS011;2330;48.158;11.816;2022-09-01T11:57:31;3.90;;;2.90;;
4634;SDS011;2330;48.158;11.816;2022-09-01T11:59:59;4.63;;;2.83;;
4634;SDS011;2330;48.158;11.816;2022-09-01T12:02:30;10.27;;;2.53;;
4634;SDS011;2330;48.158;11.816;2022-09-01T12:05:02;4.30;;;1.77;;
4634;SDS011;2330;48.158;11.816;2022-09-01T12:07:49;2.77;;;2.57;;
4634;SDS011;2330;48.158;11.816;2022-09-01T12:10:31;6.07;;;2.37;;
4634;SDS011;2330;48.158;11.816;2022-09-01T12:15:38;1.80;;;1.70;;
4634;SDS011;2330;48.158;11.816;2022-09-01T12:18:31;2.93;;;2.50;;
4634;SDS011;2330;48.158;11.816;2022-09-01T12:21:02;3.77;;;2.57;;
4634;SDS011;2330;48.158;11.816;2022-09-01T12:23:35;5.23;;;2.70;;
4634;SDS011;2330;48.158;11.816;2022-09-01T12:26:10;3.77;;;2.77;;
4634;SDS011;2330;48.158;11.816;2022-09-01T12:28:39;2.33;;;2.13;;
4634;SDS011;2330;48.158;11.816;2022-09-01T12:31:17;14.27;;;3.23;;
4634;SDS011;2330;48.158;11.816;2022-09-01T12:33:47;7.67;;;2.50;;
4634;SDS011;2330;48.158;11.816;2022-09-01T12:36:17;3.80;;;2.20;;
4634;SDS011;2330;48.158;11.816;2022-09-01T12:38:53;4.10;;;2.17;;
4634;SDS011;2330;48.158;11.816;2022-09-01T12:41:27;3.20;;;2.30;;
4634;SDS011;2330;48.158;11.816;2022-09-01T12:46:56;2.80;;;1.70;;
4634;SDS011;2330;48.158;11.816;2022-09-01T12:49:36;8.70;;;2.80;;
4634;SDS011;2330;48.158;11.816;2022-09-01T12:54:45;4.57;;;2.40;;
4634;SDS011;2330;48.158;11.816;2022-09-01T12:57:31;3.03;;;1.97;;
4634;SDS011;2330;48.158;11.816;2022-09-01T13:02:49;2.33;;;1.93;;
4634;SDS011;2330;48.158;11.816;2022-09-01T13:07:58;1.80;;;1.70;;
4634;SDS011;2330;48.158;11.816;2022-09-01T13:10:35;1.97;;;1.83;;
4634;SDS011;2330;48.158;11.816;2022-09-01T13:13:08;2.17;;;1.97;;
4634;SDS011;2330;48.158;11.816;2022-09-01T13:15:37;2.10;;;1.80;;
4634;SDS011;2330;48.158;11.816;2022-09-01T13:18:06;4.83;;;2.27;;
4634;SDS011;2330;48.158;11.816;2022-09-01T13:20:33;2.07;;;1.70;;
4634;SDS011;2330;48.158;11.816;2022-09-01T13:23:00;3.63;;;1.57;;
4634;SDS011;2330;48.158;11.816;2022-09-01T13:25:27;10.77;;;2.07;;
4634;SDS011;2330;48.158;11.816;2022-09-01T13:27:54;2.53;;;2.00;;
4634;SDS011;2330;48.158;11.816;2022-09-01T13:30:22;6.30;;;2.07;;
4634;SDS011;2330;48.158;11.816;2022-09-01T13:32:52;2.30;;;1.80;;
4634;SDS011;2330;48.158;11.816;2022-09-01T13:35:38;1.93;;;1.83;;
4634;SDS011;2330;48.158;11.816;2022-09-01T13:38:05;2.00;;;1.80;;
4634;SDS011;2330;48.158;11.816;2022-09-01T13:40:32;1.90;;;1.70;;
4634;SDS011;2330;48.158;11.816;2022-09-01T13:42:59;3.67;;;1.70;;
4634;SDS011;2330;48.158;11.816;2022-09-01T13:45:27;2.10;;;1.77;;
4634;SDS011;2330;48.158;11.816;2022-09-01T13:47:54;3.40;;;1.80;;
4634;SDS011;2330;48.158;11.816;2022-09-01T13:50:40;3.10;;;2.10;;
4634;SDS011;2330;48.158;11.816;2022-09-01T13:53:28;1.60;;;1.50;;
4634;SDS011;2330;48.158;11.816;2022-09-01T13:55:55;1.63;;;1.50;;
4634;SDS011;2330;48.158;11.816;2022-09-01T13:58:22;1.47;;;1.30;;
4634;SDS011;2330;48.158;11.816;2022-09-01T14:00:49;3.70;;;2.00;;
4634;SDS011;2330;48.158;11.816;2022-09-01T14:03:17;1.60;;;1.50;;
4634;SDS011;2330;48.158;11.816;2022-09-01T14:05:46;1.70;;;1.60;;
4634;SDS011;2330;48.158;11.816;2022-09-01T14:08:15;1.93;;;1.23;;
4634;SDS011;2330;48.158;11.816;2022-09-01T14:10:46;1.50;;;1.40;;
4634;SDS011;2330;48.158;11.816;2022-09-01T14:13:16;3.60;;;1.80;;
4634;SDS011;2330;48.158;11.816;2022-09-01T14:15:43;1.90;;;1.60;;
4634;SDS011;2330;48.158;11.816;2022-09-01T14:18:12;2.50;;;2.23;;
4634;SDS011;2330;48.158;11.816;2022-09-01T14:20:41;1.50;;;1.20;;
4634;SDS011;2330;48.158;11.816;2022-09-01T14:23:10;2.40;;;1.23;;
4634;SDS011;2330;48.158;11.816;2022-09-01T14:25:48;2.03;;;1.77;;
4634;SDS011;2330;48.158;11.816;2022-09-01T14:28:16;2.93;;;1.40;;
4634;SDS011;2330;48.158;11.816;2022-09-01T14:30:46;1.57;;;1.40;;
4634;SDS011;2330;48.158;11.816;2022-09-01T14:33:14;2.60;;;1.80;;
4634;SDS011;2330;48.158;11.816;2022-09-01T14:35:44;3.70;;;1.47;;
4634;SDS011;2330;48.158;11.816;2022-09-01T14:38:12;2.17;;;1.67;;
4634;SDS011;2330;48.158;11.816;2022-09-01T14:40:40;1.97;;;1.57;;
4634;SDS011;2330;48.158;11.816;2022-09-01T14:43:09;3.07;;;1.83;;
4634;SDS011;2330;48.158;11.816;2022-09-01T14:45:39;1.60;;;1.50;;
4634;SDS011;2330;48.158;11.816;2022-09-01T14:48:09;1.40;;;1.27;;
4634;SDS011;2330;48.158;11.816;2022-09-01T14:50:38;1.93;;;1.83;;
4634;SDS011;2330;48.158;11.816;2022-09-01T14:53:09;1.67;;;1.40;;
4634;SDS011;2330;48.158;11.816;2022-09-01T14:55:37;1.80;;;1.50;;
4634;SDS011;2330;48.158;11.816;2022-09-01T14:58:04;2.20;;;1.80;;
4634;SDS011;2330;48.158;11.816;2022-09-01T15:00:31;1.40;;;1.30;;
4634;SDS011;2330;48.158;11.816;2022-09-01T15:03:01;2.60;;;1.40;;
4634;SDS011;2330;48.158;11.816;2022-09-01T15:05:27;2.40;;;1.50;;
4634;SDS011;2330;48.158;11.816;2022-09-01T15:08:04;2.10;;;1.53;;
4634;SDS011;2330;48.158;11.816;2022-09-01T15:10:31;2.40;;;1.20;;
4634;SDS011;2330;48.158;11.816;2022-09-01T15:12:59;5.00;;;1.10;;
4634;SDS011;2330;48.158;11.816;2022-09-01T15:15:27;1.50;;;1.40;;
4634;SDS011;2330;48.158;11.816;2022-09-01T15:17:55;1.50;;;1.40;;
4634;SDS011;2330;48.158;11.816;2022-09-01T15:20:22;1.30;;;1.17;;
4634;SDS011;2330;48.158;11.816;2022-09-01T15:23:07;1.57;;;1.47;;
4634;SDS011;2330;48.158;11.816;2022-09-01T15:25:35;2.63;;;1.03;;
4634;SDS011;2330;48.158;11.816;2022-09-01T15:28:02;1.53;;;1.43;;
4634;SDS011;2330;48.158;11.816;2022-09-01T15:30:29;1.93;;;1.37;;
4634;SDS011;2330;48.158;11.816;2022-09-01T15:32:56;1.93;;;1.17;;
4634;SDS011;2330;48.158;11.816;2022-09-01T15:35:23;3.20;;;1.60;;
4634;SDS011;2330;48.158;11.816;2022-09-01T15:37:50;2.03;;;1.57;;
4634;SDS011;2330;48.158;11.816;2022-09-01T15:40:17;3.73;;;1.63;;
4634;SDS011;2330;48.158;11.816;2022-09-01T15:42:45;1.37;;;1.20;;
4634;SDS011;2330;48.158;11.816;2022-09-01T15:45:13;3.40;;;1.53;;
4634;SDS011;2330;48.158;11.816;2022-09-01T15:47:43;2.47;;;1.90;;
4634;SDS011;2330;48.158;11.816;2022-09-01T15:50:11;1.73;;;1.27;;
4634;SDS011;2330;48.158;11.816;2022-09-01T15:52:57;1.60;;;1.23;;
4634;SDS011;2330;48.158;11.816;2022-09-01T15:55:27;1.30;;;1.20;;
4634;SDS011;2330;48.158;11.816;2022-09-01T15:58:09;3.37;;;1.40;;
4634;SDS011;2330;48.158;11.816;2022-09-01T16:00:38;2.10;;;1.50;;
4634;SDS011;2330;48.158;11.816;2022-09-01T16:03:06;2.10;;;1.43;;